Terminal Aerodrome Forecast
Issued by NWS

Home | Current Version | Previous Version | Text Only | Print | Product List | Glossary Off
Versions: 1 2 3 4 5 6 7 8 9 10 11 12 13 14 15 16

011
FTUS43 KGRB 221405 AAA
TAFMTW
TAF AMD
KMTW 221405Z 2214/2312 09004KT P6SM OVC016
     FM221500 08005KT P6SM OVC025
     FM221600 08006KT P6SM BKN035
     FM222000 08007KT P6SM BKN040
     FM230100 VRB03KT P6SM BKN050 PROB30 2303/2307 5SM -TSRA
      BKN025CB
     FM230700 23004KT 5SM BR VCSH BKN030
     FM231000 25005KT 4SM BR SCT008 BKN025=

USA.gov is the U.S. government's official web portal to all federal, state and local government web resources and services.